createdAt,value
2018-10-09T00:00:38.875Z,8.20
2018-10-09T00:01:38.824Z,8.70
2018-10-09T00:02:38.801Z,8.20
2018-10-09T00:03:38.782Z,9.50
2018-10-09T00:04:38.758Z,9.50
2018-10-09T00:05:38.739Z,9.50
2018-10-09T00:06:38.721Z,10.80
2018-10-09T00:07:38.698Z,9.90
2018-10-09T00:08:38.681Z,10.50
2018-10-09T00:09:38.650Z,10.10
2018-10-09T00:10:38.626Z,10.70
2018-10-09T00:11:38.607Z,10.70
2018-10-09T00:12:38.590Z,10.00
2018-10-09T00:13:38.568Z,11.00
2018-10-09T00:14:38.546Z,11.10
2018-10-09T00:15:38.521Z,12.50
2018-10-09T00:16:38.498Z,11.10
2018-10-09T00:17:38.479Z,12.40
2018-10-09T00:18:38.458Z,13.70
2018-10-09T00:19:38.435Z,12.80
2018-10-09T00:20:38.413Z,14.30
2018-10-09T00:21:38.394Z,13.10
2018-10-09T00:22:38.371Z,17.00
2018-10-09T00:23:38.358Z,13.90
2018-10-09T00:24:38.329Z,13.10
2018-10-09T00:25:38.309Z,12.40
2018-10-09T00:26:38.285Z,13.30
2018-10-09T00:27:38.268Z,12.60
2018-10-09T00:28:38.243Z,12.10
2018-10-09T00:29:38.221Z,11.30
2018-10-09T00:30:38.202Z,13.90
2018-10-09T00:31:38.176Z,11.80
2018-10-09T00:32:38.156Z,12.00
2018-10-09T00:33:38.134Z,12.20
2018-10-09T00:34:38.111Z,11.90
2018-10-09T00:35:38.091Z,13.00
2018-10-09T00:36:38.069Z,11.40
2018-10-09T00:37:38.053Z,12.20
2018-10-09T00:38:38.033Z,11.70
2018-10-09T00:39:38.003Z,11.50
2018-10-09T00:40:37.987Z,13.50
2018-10-09T00:41:37.962Z,13.00
2018-10-09T00:42:37.939Z,13.00
2018-10-09T00:43:37.918Z,12.20
2018-10-09T00:44:37.905Z,12.40
2018-10-09T00:45:37.875Z,13.00
2018-10-09T00:46:37.854Z,12.40
2018-10-09T00:47:37.834Z,13.70
2018-10-09T00:48:37.816Z,11.70
2018-10-09T00:49:37.791Z,12.30
2018-10-09T00:50:37.770Z,14.70
2018-10-09T00:51:37.747Z,12.80
2018-10-09T00:52:37.724Z,13.00
2018-10-09T00:53:37.705Z,12.40
2018-10-09T00:54:37.680Z,12.70
2018-10-09T00:55:37.668Z,11.90
2018-10-09T00:56:37.637Z,14.60
2018-10-09T00:57:37.617Z,12.70
2018-10-09T00:58:37.596Z,13.40
2018-10-09T00:59:37.573Z,13.60
2018-10-09T01:00:37.553Z,11.40
2018-10-09T01:01:37.535Z,10.50
2018-10-09T01:02:37.506Z,10.50
2018-10-09T01:03:37.485Z,11.30
2018-10-09T01:04:37.466Z,12.00
2018-10-09T01:05:37.444Z,12.40
2018-10-09T01:06:37.421Z,12.00
2018-10-09T01:07:37.399Z,13.40
2018-10-09T01:08:37.381Z,12.50
2018-10-09T01:09:37.360Z,13.30
2018-10-09T01:10:37.335Z,15.10
2018-10-09T01:11:37.315Z,12.60
2018-10-09T01:12:37.297Z,13.90
2018-10-09T01:13:37.273Z,13.70
2018-10-09T01:14:37.248Z,12.10
2018-10-09T01:15:37.229Z,13.40
2018-10-09T01:16:37.210Z,11.40
2018-10-09T01:17:37.183Z,12.90
2018-10-09T01:18:37.165Z,11.80
2018-10-09T01:19:37.140Z,11.30
2018-10-09T01:20:37.120Z,12.30
2018-10-09T01:21:37.104Z,11.80
2018-10-09T01:22:37.080Z,10.90
2018-10-09T01:23:37.053Z,22.10
2018-10-09T01:24:37.035Z,13.20
2018-10-09T01:25:37.011Z,12.80
2018-10-09T01:26:36.988Z,11.90
2018-10-09T01:27:36.967Z,9.90
2018-10-09T01:28:36.945Z,9.40
2018-10-09T01:29:36.925Z,10.40
2018-10-09T01:30:36.957Z,10.20
2018-10-09T01:31:36.882Z,10.40
2018-10-09T01:32:36.858Z,10.30
2018-10-09T01:33:36.837Z,12.00
2018-10-09T01:34:36.820Z,12.10
2018-10-09T01:35:36.794Z,13.20
2018-10-09T01:36:36.771Z,11.40
2018-10-09T01:37:36.750Z,14.30
2018-10-09T01:38:36.728Z,10.70
2018-10-09T01:39:36.707Z,11.70
2018-10-09T01:40:36.685Z,11.90
2018-10-09T01:41:36.664Z,12.90
2018-10-09T01:42:36.641Z,13.20
2018-10-09T01:43:36.624Z,11.30
2018-10-09T01:44:36.598Z,12.70
2018-10-09T01:45:36.581Z,13.10
2018-10-09T01:46:36.555Z,11.90
2018-10-09T01:47:36.533Z,11.90
2018-10-09T01:48:36.512Z,12.30
2018-10-09T01:49:36.492Z,13.40
2018-10-09T01:50:36.468Z,12.80
2018-10-09T01:51:36.447Z,12.70
2018-10-09T01:52:36.430Z,14.10
2018-10-09T01:53:36.403Z,12.60
2018-10-09T01:54:36.381Z,13.70
2018-10-09T01:55:36.358Z,13.50
2018-10-09T01:56:36.340Z,15.30
2018-10-09T01:57:36.322Z,13.50
2018-10-09T01:58:36.295Z,13.50
2018-10-09T01:59:36.274Z,13.20
2018-10-09T02:00:36.254Z,12.40
2018-10-09T02:01:36.228Z,13.70
2018-10-09T02:02:36.208Z,12.70
2018-10-09T02:03:36.185Z,13.20
2018-10-09T02:04:36.163Z,16.50
2018-10-09T02:05:36.144Z,13.80
2018-10-09T02:06:36.120Z,14.50
2018-10-09T02:07:36.097Z,14.70
2018-10-09T02:08:36.076Z,14.30
2018-10-09T02:09:36.057Z,13.00
2018-10-09T02:10:36.033Z,13.40
2018-10-09T02:11:36.012Z,12.20
2018-10-09T02:12:35.991Z,13.70
2018-10-09T02:13:35.969Z,13.70
2018-10-09T02:14:35.946Z,13.70
2018-10-09T02:15:35.925Z,14.50
2018-10-09T02:16:35.903Z,14.00
2018-10-09T02:17:35.884Z,14.10
2018-10-09T02:18:35.857Z,12.30
2018-10-09T02:19:35.839Z,12.20
2018-10-09T02:20:35.814Z,11.30
2018-10-09T02:21:35.794Z,10.70
2018-10-09T02:22:35.770Z,9.60
2018-10-09T02:23:35.749Z,10.60
2018-10-09T02:24:35.727Z,11.10
2018-10-09T02:25:35.710Z,13.20
2018-10-09T02:26:35.694Z,12.80
2018-10-09T02:27:35.661Z,12.90
2018-10-09T02:28:35.640Z,14.50
2018-10-09T02:29:35.617Z,13.00
2018-10-09T02:30:35.596Z,13.80
2018-10-09T02:31:35.576Z,13.80
2018-10-09T02:32:35.553Z,14.80
2018-10-09T02:33:35.568Z,13.40
2018-10-09T02:34:35.508Z,13.90
2018-10-09T02:35:35.489Z,13.60
2018-10-09T02:36:35.468Z,14.50
2018-10-09T02:37:35.444Z,13.30
2018-10-09T02:38:35.421Z,14.90
2018-10-09T02:39:35.398Z,14.50
2018-10-09T02:40:35.377Z,14.10
2018-10-09T02:41:35.357Z,13.40
2018-10-09T02:42:35.333Z,13.00
2018-10-09T02:43:35.313Z,13.40
2018-10-09T02:44:35.292Z,15.30
2018-10-09T02:45:35.270Z,14.00
2018-10-09T02:46:35.246Z,14.50
2018-10-09T02:47:35.229Z,12.80
2018-10-09T02:48:35.204Z,11.90
2018-10-09T02:49:35.182Z,10.90
2018-10-09T02:50:35.158Z,11.60
2018-10-09T02:51:35.138Z,11.90
2018-10-09T02:52:35.115Z,12.90
2018-10-09T02:53:35.100Z,12.50
2018-10-09T02:54:35.072Z,12.90
2018-10-09T02:55:35.050Z,16.60
2018-10-09T02:56:35.027Z,12.20
2018-10-09T02:57:35.011Z,12.00
2018-10-09T02:58:34.984Z,11.40
2018-10-09T02:59:34.962Z,11.00
2018-10-09T03:00:34.949Z,10.20
2018-10-09T03:01:34.918Z,12.50
2018-10-09T03:02:34.905Z,13.80
2018-10-09T03:03:34.875Z,11.20
2018-10-09T03:04:34.860Z,8.50
2018-10-09T03:05:34.836Z,7.30
2018-10-09T03:06:34.807Z,6.80
2018-10-09T03:07:34.787Z,6.60
2018-10-09T03:08:34.829Z,6.30
2018-10-09T03:09:34.744Z,6.60
2018-10-09T03:10:34.722Z,6.30
2018-10-09T03:11:34.698Z,6.80
2018-10-09T03:12:34.677Z,11.00
2018-10-09T03:13:34.654Z,12.70
2018-10-09T03:14:34.637Z,13.90
2018-10-09T03:15:34.616Z,13.80
2018-10-09T03:16:34.591Z,12.20
2018-10-09T03:17:34.576Z,13.10
2018-10-09T03:18:34.551Z,12.80
2018-10-09T03:19:34.528Z,12.60
2018-10-09T03:20:34.517Z,13.80
2018-10-09T03:21:34.479Z,12.30
2018-10-09T03:22:34.456Z,9.60
2018-10-09T03:23:34.440Z,9.40
2018-10-09T03:24:34.412Z,12.00
2018-10-09T03:25:34.392Z,11.10
2018-10-09T03:26:34.367Z,10.10
2018-10-09T03:27:34.345Z,11.10
2018-10-09T03:28:34.324Z,11.40
2018-10-09T03:29:34.313Z,12.10
2018-10-09T03:30:34.282Z,12.20
2018-10-09T03:31:34.261Z,12.70
2018-10-09T03:32:34.238Z,10.80
2018-10-09T03:33:34.215Z,10.00
2018-10-09T03:34:34.194Z,11.00
2018-10-09T03:35:34.180Z,11.80
2018-10-09T03:36:34.148Z,10.50
2018-10-09T03:37:34.128Z,10.80
2018-10-09T03:38:34.105Z,12.00
2018-10-09T03:39:34.083Z,11.60
2018-10-09T03:40:34.063Z,11.60
2018-10-09T03:41:34.039Z,11.80
2018-10-09T03:42:34.016Z,11.60
2018-10-09T03:43:33.994Z,11.00
2018-10-09T03:44:33.971Z,12.20
2018-10-09T03:45:33.952Z,13.50
2018-10-09T03:46:33.926Z,12.10
2018-10-09T03:47:33.912Z,13.30
2018-10-09T03:48:33.884Z,12.90
2018-10-09T03:49:33.862Z,12.40
2018-10-09T03:50:33.840Z,12.30
2018-10-09T03:51:33.817Z,12.50
2018-10-09T03:52:33.793Z,12.60
2018-10-09T03:53:33.772Z,11.70
2018-10-09T03:54:33.748Z,12.30
2018-10-09T03:55:33.727Z,12.60
2018-10-09T03:56:33.706Z,11.90
2018-10-09T03:57:33.686Z,12.60
2018-10-09T03:58:33.661Z,11.70
2018-10-09T03:59:33.642Z,11.80
2018-10-09T04:00:33.618Z,10.00
2018-10-09T04:01:33.596Z,11.10
2018-10-09T04:02:33.574Z,11.70
2018-10-09T04:03:33.551Z,11.30
2018-10-09T04:04:33.530Z,11.50
2018-10-09T04:05:33.508Z,11.10
2018-10-09T04:06:33.484Z,14.10
2018-10-09T04:07:33.464Z,11.20
2018-10-09T04:08:33.439Z,10.90
2018-10-09T04:09:33.495Z,11.00
2018-10-09T04:10:33.396Z,11.30
2018-10-09T04:11:33.377Z,10.30
2018-10-09T04:12:33.387Z,11.20
2018-10-09T04:13:33.332Z,11.20
2018-10-09T04:14:33.307Z,12.30
2018-10-09T04:15:33.285Z,11.70
2018-10-09T04:16:33.261Z,11.90
2018-10-09T04:17:33.241Z,11.80
2018-10-09T04:18:33.221Z,11.70
2018-10-09T04:19:33.289Z,11.80
2018-10-09T04:20:33.175Z,11.80
2018-10-09T04:21:33.151Z,12.70
2018-10-09T04:22:33.130Z,11.60
2018-10-09T04:23:33.108Z,11.90
2018-10-09T04:24:33.088Z,12.20
2018-10-09T04:25:33.066Z,12.40
2018-10-09T04:26:33.047Z,11.90
2018-10-09T04:27:33.019Z,13.20
2018-10-09T04:28:32.998Z,12.70
2018-10-09T04:29:33.034Z,12.00
2018-10-09T04:30:32.954Z,12.50
2018-10-09T04:31:32.933Z,11.70
2018-10-09T04:32:32.909Z,12.40
2018-10-09T04:33:32.887Z,13.00
2018-10-09T04:34:32.864Z,13.40
2018-10-09T04:35:32.897Z,13.40
2018-10-09T04:36:32.822Z,11.40
2018-10-09T04:37:32.798Z,5.30
2018-10-09T04:38:32.775Z,8.30
2018-10-09T04:39:32.756Z,8.20
2018-10-09T04:40:32.731Z,10.00
2018-10-09T04:41:32.708Z,10.40
2018-10-09T04:42:32.686Z,10.80
2018-10-09T04:43:32.664Z,9.90
2018-10-09T04:44:32.645Z,11.00
2018-10-09T04:45:32.732Z,10.70
2018-10-09T04:46:32.597Z,10.50
2018-10-09T04:47:32.578Z,10.20
2018-10-09T04:48:32.553Z,10.80
2018-10-09T04:49:32.532Z,10.70
2018-10-09T04:50:32.509Z,10.80
2018-10-09T04:51:32.486Z,11.30
2018-10-09T04:52:32.464Z,11.70
2018-10-09T04:53:32.442Z,11.80
2018-10-09T04:54:32.421Z,10.90
2018-10-09T04:55:32.397Z,11.70
2018-10-09T04:56:32.374Z,11.70
2018-10-09T04:57:32.353Z,11.60
2018-10-09T04:58:32.330Z,11.80
2018-10-09T04:59:32.307Z,10.70
2018-10-09T05:00:32.304Z,11.10
2018-10-09T05:01:32.266Z,11.20
2018-10-09T05:02:32.243Z,11.60
2018-10-09T05:03:32.219Z,11.30
2018-10-09T05:04:32.198Z,11.90
2018-10-09T05:05:32.175Z,11.90
2018-10-09T05:06:32.153Z,10.80
2018-10-09T05:07:32.133Z,12.20
2018-10-09T05:08:32.108Z,12.20
2018-10-09T05:09:32.090Z,11.10
2018-10-09T05:10:32.063Z,12.60
2018-10-09T05:11:32.045Z,11.10
2018-10-09T05:12:32.022Z,10.80
2018-10-09T05:13:32.001Z,10.40
2018-10-09T05:14:31.980Z,10.30
2018-10-09T05:15:31.953Z,10.10
2018-10-09T05:16:31.931Z,12.30
2018-10-09T05:17:31.910Z,12.50
2018-10-09T05:18:31.882Z,12.40
2018-10-09T05:19:31.866Z,8.20
2018-10-09T05:20:31.843Z,8.80
2018-10-09T05:21:31.833Z,8.60
2018-10-09T05:22:31.798Z,8.60
2018-10-09T05:23:31.776Z,10.60
2018-10-09T05:24:31.756Z,9.60
2018-10-09T05:25:31.732Z,8.90
2018-10-09T05:26:31.706Z,8.90
2018-10-09T05:27:31.686Z,10.10
2018-10-09T05:28:31.664Z,9.70
2018-10-09T05:29:31.663Z,11.10
2018-10-09T05:30:31.631Z,14.80
2018-10-09T05:31:31.655Z,14.10
2018-10-09T05:32:31.576Z,12.80
2018-10-09T05:33:31.555Z,11.50
2018-10-09T05:34:31.527Z,11.90
2018-10-09T05:35:31.510Z,11.70
2018-10-09T05:36:31.485Z,11.80
2018-10-09T05:37:31.483Z,13.10
2018-10-09T05:38:31.442Z,14.20
2018-10-09T05:39:31.419Z,12.50
2018-10-09T05:40:31.394Z,13.20
2018-10-09T05:41:31.376Z,13.10
2018-10-09T05:42:31.348Z,13.50
2018-10-09T05:43:32.277Z,11.90
2018-10-09T05:44:31.328Z,11.90
2018-10-09T05:45:31.283Z,11.50
2018-10-09T05:46:31.264Z,11.50
2018-10-09T05:47:31.238Z,11.10
2018-10-09T05:48:31.216Z,12.00
2018-10-09T05:49:31.197Z,11.90
2018-10-09T05:50:31.171Z,12.10
2018-10-09T05:51:31.147Z,12.60
2018-10-09T05:52:31.235Z,11.60
2018-10-09T05:53:31.105Z,11.40
2018-10-09T05:54:31.082Z,12.10
2018-10-09T05:55:31.060Z,12.00
2018-10-09T05:56:31.040Z,11.90
2018-10-09T05:57:31.016Z,11.40
2018-10-09T05:58:30.993Z,13.70
2018-10-09T05:59:30.969Z,10.90
2018-10-09T06:00:30.947Z,12.40
2018-10-09T06:01:30.924Z,11.70
2018-10-09T06:02:30.901Z,11.90
2018-10-09T06:03:30.880Z,11.50
2018-10-09T06:04:30.863Z,11.40
2018-10-09T06:05:30.837Z,11.10
2018-10-09T06:06:30.812Z,12.70
2018-10-09T06:07:30.790Z,15.60
2018-10-09T06:08:30.768Z,10.70
2018-10-09T06:09:30.746Z,12.90
2018-10-09T06:10:30.723Z,11.10
2018-10-09T06:11:30.709Z,10.70
2018-10-09T06:12:30.680Z,15.00
2018-10-09T06:13:30.657Z,11.60
2018-10-09T06:14:30.635Z,10.30
2018-10-09T06:15:30.722Z,11.80
2018-10-09T06:16:30.594Z,11.70
2018-10-09T06:17:30.571Z,10.90
2018-10-09T06:18:30.546Z,11.20
2018-10-09T06:19:30.523Z,12.50
2018-10-09T06:20:30.502Z,10.40
2018-10-09T06:21:30.478Z,11.90
2018-10-09T06:22:30.457Z,11.30
2018-10-09T06:23:30.436Z,10.80
2018-10-09T06:24:30.412Z,13.10
2018-10-09T06:25:30.390Z,12.50
2018-10-09T06:26:30.374Z,12.30
2018-10-09T06:27:30.344Z,12.90
2018-10-09T06:28:30.434Z,13.30
2018-10-09T06:29:30.305Z,33.00
2018-10-09T06:30:30.279Z,28.70
2018-10-09T06:31:30.255Z,27.40
2018-10-09T06:32:30.234Z,25.30
2018-10-09T06:33:30.221Z,25.90
2018-10-09T06:34:30.189Z,34.00
2018-10-09T06:35:30.169Z,31.20
2018-10-09T06:36:30.145Z,33.50
2018-10-09T06:37:30.123Z,32.30
2018-10-09T06:38:30.100Z,32.20
2018-10-09T06:39:30.081Z,30.50
2018-10-09T06:40:30.158Z,32.80
2018-10-09T06:41:30.040Z,26.70
2018-10-09T06:42:30.022Z,23.50
2018-10-09T06:43:29.990Z,24.00
2018-10-09T06:44:29.967Z,20.40
2018-10-09T06:45:29.948Z,18.70
2018-10-09T06:46:29.932Z,46.90
2018-10-09T06:47:29.917Z,74.10
2018-10-09T06:48:29.877Z,31.20
2018-10-09T06:49:29.856Z,30.70
2018-10-09T06:50:29.832Z,24.50
2018-10-09T06:51:29.809Z,24.80
2018-10-09T06:52:29.788Z,27.80
2018-10-09T06:53:29.846Z,29.20
2018-10-09T06:54:29.776Z,23.40
2018-10-09T06:55:29.730Z,22.60
2018-10-09T06:56:29.701Z,28.20
2018-10-09T06:57:29.680Z,25.70
2018-10-09T06:58:29.657Z,23.10
2018-10-09T06:59:29.645Z,21.70
2018-10-09T07:00:29.619Z,22.10
2018-10-09T07:01:29.591Z,21.60
2018-10-09T07:02:29.569Z,25.20
2018-10-09T07:03:29.550Z,22.50
2018-10-09T07:04:29.525Z,20.00
2018-10-09T07:05:29.504Z,21.70
2018-10-09T07:06:29.530Z,25.70
2018-10-09T07:07:29.459Z,22.50
2018-10-09T07:08:29.442Z,17.10
2018-10-09T07:09:29.432Z,19.50
2018-10-09T07:10:29.393Z,20.30
2018-10-09T07:11:29.390Z,22.50
2018-10-09T07:12:29.351Z,18.10
2018-10-09T07:13:29.328Z,25.30
2018-10-09T07:14:29.304Z,22.30
2018-10-09T07:15:29.283Z,24.70
2018-10-09T07:16:29.261Z,21.10
2018-10-09T07:17:29.251Z,23.40
2018-10-09T07:18:29.218Z,18.00
2018-10-09T07:19:29.195Z,20.80
2018-10-09T07:20:29.175Z,19.70
2018-10-09T07:21:29.152Z,18.40
2018-10-09T07:22:29.136Z,19.10
2018-10-09T07:23:29.110Z,18.10
2018-10-09T07:24:29.092Z,17.30
2018-10-09T07:25:29.066Z,19.80
2018-10-09T07:26:29.051Z,22.40
2018-10-09T07:27:29.020Z,21.90
2018-10-09T07:28:29.000Z,19.10
2018-10-09T07:29:28.977Z,23.00
2018-10-09T07:30:28.953Z,18.00
2018-10-09T07:31:28.933Z,17.60
2018-10-09T07:32:28.912Z,19.40
2018-10-09T07:33:28.893Z,19.90
2018-10-09T07:34:28.867Z,22.00
2018-10-09T07:35:28.848Z,18.40
2018-10-09T07:36:28.827Z,18.40
2018-10-09T07:37:28.827Z,18.60
2018-10-09T07:38:28.782Z,22.50
2018-10-09T07:39:28.766Z,18.90
2018-10-09T07:40:28.745Z,19.30
2018-10-09T07:41:28.719Z,19.50
2018-10-09T07:42:28.703Z,21.20
2018-10-09T07:43:28.674Z,19.20
2018-10-09T07:44:28.652Z,20.20
2018-10-09T07:45:28.632Z,19.60
2018-10-09T07:46:28.621Z,18.80
2018-10-09T07:47:28.589Z,21.10
2018-10-09T07:48:28.568Z,25.70
2018-10-09T07:49:28.543Z,28.80
2018-10-09T07:50:28.533Z,24.30
2018-10-09T07:51:28.501Z,24.90
2018-10-09T07:52:28.484Z,20.50
2018-10-09T07:53:28.457Z,18.70
2018-10-09T07:54:28.439Z,19.50
2018-10-09T07:55:28.460Z,20.50
2018-10-09T07:56:28.395Z,21.20
2018-10-09T07:57:28.383Z,20.70
2018-10-09T07:58:28.380Z,18.20
2018-10-09T07:59:28.331Z,18.90
2018-10-09T08:00:28.313Z,19.90
2018-10-09T08:01:28.290Z,19.20
2018-10-09T08:02:28.271Z,19.40
2018-10-09T08:03:28.247Z,20.00
2018-10-09T08:04:28.227Z,19.80
2018-10-09T08:05:28.203Z,21.50
2018-10-09T08:06:28.188Z,18.70
2018-10-09T08:07:28.167Z,18.40
2018-10-09T08:08:28.144Z,19.70
2018-10-09T08:09:28.123Z,22.70
2018-10-09T08:10:28.194Z,21.80
2018-10-09T08:11:28.079Z,19.90
2018-10-09T08:12:28.057Z,19.70
2018-10-09T08:13:28.043Z,18.50
2018-10-09T08:14:28.013Z,19.60
2018-10-09T08:15:27.997Z,19.50
2018-10-09T08:16:28.067Z,21.20
2018-10-09T08:17:27.960Z,22.30
2018-10-09T08:18:27.934Z,22.30
2018-10-09T08:19:27.909Z,22.50
2018-10-09T08:20:27.890Z,22.20
2018-10-09T08:21:27.873Z,22.50
2018-10-09T08:22:27.931Z,24.30
2018-10-09T08:23:27.828Z,24.50
2018-10-09T08:24:27.809Z,22.20
2018-10-09T08:25:27.791Z,23.00
2018-10-09T08:26:27.762Z,24.70
2018-10-09T08:27:27.742Z,24.10
2018-10-09T08:28:27.727Z,25.90
2018-10-09T08:29:27.701Z,24.30
2018-10-09T08:30:27.679Z,26.60
2018-10-09T08:31:27.657Z,28.80
2018-10-09T08:32:27.647Z,24.40
2018-10-09T08:33:27.618Z,24.10
2018-10-09T08:34:27.670Z,26.70
2018-10-09T08:35:27.573Z,24.90
2018-10-09T08:36:27.564Z,25.10
2018-10-09T08:37:27.535Z,26.10
2018-10-09T08:38:27.512Z,25.80
2018-10-09T08:39:27.497Z,25.10
2018-10-09T08:40:27.631Z,27.70
2018-10-09T08:41:27.451Z,26.00
2018-10-09T08:42:27.437Z,25.80
2018-10-09T08:43:27.409Z,24.60
2018-10-09T08:44:27.402Z,24.70
2018-10-09T08:45:27.369Z,24.90
2018-10-09T08:46:27.419Z,23.50
2018-10-09T08:47:27.331Z,29.60
2018-10-09T08:48:27.315Z,24.80
2018-10-09T08:49:27.297Z,28.80
2018-10-09T08:50:27.264Z,23.40
2018-10-09T08:51:27.244Z,26.80
2018-10-09T08:52:27.223Z,25.50
2018-10-09T08:53:27.206Z,26.10
2018-10-09T08:54:27.182Z,26.50
2018-10-09T08:55:27.162Z,25.90
2018-10-09T08:56:27.140Z,25.70
2018-10-09T08:57:27.214Z,24.70
2018-10-09T08:58:27.100Z,23.30
2018-10-09T08:59:27.081Z,26.00
2018-10-09T09:00:27.068Z,26.30
2018-10-09T09:01:27.043Z,24.20
2018-10-09T09:02:27.021Z,26.40
2018-10-09T09:03:27.053Z,30.60
2018-10-09T09:04:26.982Z,31.00
2018-10-09T09:05:26.961Z,28.90
2018-10-09T09:06:26.936Z,28.50
2018-10-09T09:07:26.921Z,27.10
2018-10-09T09:08:26.897Z,26.40
2018-10-09T09:09:26.914Z,25.30
2018-10-09T09:10:26.865Z,27.30
2018-10-09T09:11:26.832Z,29.00
2018-10-09T09:12:26.815Z,29.80
2018-10-09T09:13:26.793Z,28.70
2018-10-09T09:14:26.776Z,29.00
2018-10-09T09:15:26.840Z,25.20
2018-10-09T09:16:26.731Z,25.40
2018-10-09T09:17:26.710Z,26.40
2018-10-09T09:18:26.689Z,26.60
2018-10-09T09:19:26.668Z,25.80
2018-10-09T09:20:26.677Z,27.70
2018-10-09T09:21:26.628Z,30.20
2018-10-09T09:22:26.606Z,30.90
2018-10-09T09:23:26.588Z,28.90
2018-10-09T09:24:26.567Z,28.60
2018-10-09T09:25:26.551Z,28.30
2018-10-09T09:26:26.600Z,27.20
2018-10-09T09:27:26.636Z,28.50
2018-10-09T09:28:26.483Z,28.50
2018-10-09T09:29:26.464Z,28.90
2018-10-09T09:30:26.446Z,31.30
2018-10-09T09:31:26.423Z,28.90
2018-10-09T09:32:26.402Z,29.70
2018-10-09T09:33:26.382Z,29.10
2018-10-09T09:34:26.366Z,28.10
2018-10-09T09:35:26.343Z,27.40
2018-10-09T09:36:26.323Z,27.40
2018-10-09T09:37:26.302Z,29.80
2018-10-09T09:38:26.282Z,28.60
2018-10-09T09:39:26.261Z,29.80
2018-10-09T09:40:26.241Z,29.60
2018-10-09T09:41:26.221Z,29.40
2018-10-09T09:42:26.201Z,30.50
2018-10-09T09:43:26.179Z,29.30
2018-10-09T09:44:26.161Z,29.30
2018-10-09T09:45:26.140Z,28.30
2018-10-09T09:46:26.118Z,31.50
2018-10-09T09:47:26.101Z,29.10
2018-10-09T09:48:26.077Z,28.90
2018-10-09T09:49:26.066Z,28.70
2018-10-09T09:50:26.037Z,29.60
2018-10-09T09:51:26.018Z,30.50
2018-10-09T09:52:26.002Z,29.50
2018-10-09T09:53:25.978Z,28.60
2018-10-09T09:54:25.958Z,29.00
2018-10-09T09:55:25.947Z,29.20
2018-10-09T09:56:25.925Z,29.80
2018-10-09T09:57:25.907Z,30.10
2018-10-09T09:58:26.040Z,30.40
2018-10-09T09:59:25.931Z,29.90
2018-10-09T10:00:25.841Z,29.70
2018-10-09T10:01:25.824Z,30.30
2018-10-09T10:02:25.808Z,30.80
2018-10-09T10:03:25.781Z,28.60
2018-10-09T10:04:25.768Z,29.80
2018-10-09T10:05:25.746Z,30.90
2018-10-09T10:06:25.717Z,29.90
2018-10-09T10:07:25.700Z,29.80
2018-10-09T10:08:25.679Z,30.10
2018-10-09T10:09:25.788Z,30.10
2018-10-09T10:10:25.639Z,28.90
2018-10-09T10:11:25.621Z,32.80
2018-10-09T10:12:25.602Z,29.20
2018-10-09T10:13:25.580Z,31.30
2018-10-09T10:14:25.564Z,29.80
2018-10-09T10:15:25.548Z,30.10
2018-10-09T10:16:25.540Z,29.50
2018-10-09T10:17:25.504Z,31.30
2018-10-09T10:18:25.485Z,30.80
2018-10-09T10:19:25.462Z,31.30
2018-10-09T10:20:25.449Z,31.50
2018-10-09T10:21:25.497Z,31.20
2018-10-09T10:22:25.404Z,32.90
2018-10-09T10:23:25.391Z,33.00
2018-10-09T10:24:25.363Z,31.60
2018-10-09T10:25:25.348Z,31.20
2018-10-09T10:26:25.337Z,32.20
2018-10-09T10:27:25.306Z,31.20
2018-10-09T10:28:25.312Z,30.00
2018-10-09T10:29:25.269Z,31.00
2018-10-09T10:30:25.249Z,30.10
2018-10-09T10:31:25.233Z,32.40
2018-10-09T10:32:25.208Z,31.60
2018-10-09T10:33:25.190Z,32.10
2018-10-09T10:34:25.173Z,31.40
2018-10-09T10:35:25.158Z,31.50
2018-10-09T10:36:25.135Z,31.40
2018-10-09T10:37:25.114Z,32.20
2018-10-09T10:38:25.092Z,32.70
2018-10-09T10:39:25.075Z,30.20
2018-10-09T10:40:25.055Z,32.20
2018-10-09T10:41:25.034Z,30.80
2018-10-09T10:42:25.017Z,30.50
2018-10-09T10:43:25.005Z,30.90
2018-10-09T10:44:25.000Z,29.90
2018-10-09T10:45:24.963Z,30.70
2018-10-09T10:46:24.939Z,31.20
2018-10-09T10:47:24.919Z,32.20
2018-10-09T10:48:24.903Z,31.20
2018-10-09T10:49:24.941Z,35.50
2018-10-09T10:50:24.871Z,31.30
2018-10-09T10:51:24.850Z,33.50
2018-10-09T10:52:24.824Z,32.10
2018-10-09T10:53:24.806Z,31.40
2018-10-09T10:54:24.787Z,31.50
2018-10-09T10:55:24.770Z,32.30
2018-10-09T10:56:24.750Z,31.10
2018-10-09T10:57:24.732Z,31.70
2018-10-09T10:58:24.715Z,31.90
2018-10-09T10:59:24.697Z,31.70
2018-10-09T11:00:24.675Z,32.50
2018-10-09T11:01:24.769Z,31.30
2018-10-09T11:02:24.639Z,33.20
2018-10-09T11:03:24.620Z,32.20
2018-10-09T11:04:24.607Z,32.00
2018-10-09T11:05:24.592Z,32.10
2018-10-09T11:06:24.566Z,32.40
2018-10-09T11:07:24.544Z,30.70
2018-10-09T11:08:24.642Z,33.30
2018-10-09T11:09:24.512Z,33.70
2018-10-09T11:10:24.492Z,34.20
2018-10-09T11:11:24.481Z,33.70
2018-10-09T11:12:24.453Z,33.50
2018-10-09T11:13:24.434Z,32.70
2018-10-09T11:14:24.430Z,31.80
2018-10-09T11:15:24.396Z,32.80
2018-10-09T11:16:24.388Z,31.90
2018-10-09T11:17:24.361Z,32.90
2018-10-09T11:18:24.343Z,34.60
2018-10-09T11:19:24.326Z,34.10
2018-10-09T11:20:24.304Z,32.70
2018-10-09T11:21:24.434Z,34.30
2018-10-09T11:22:24.264Z,33.20
2018-10-09T11:23:24.252Z,33.90
2018-10-09T11:24:24.228Z,33.50
2018-10-09T11:25:24.209Z,34.90
2018-10-09T11:26:24.190Z,33.10
2018-10-09T11:27:24.178Z,33.20
2018-10-09T11:28:24.154Z,36.10
2018-10-09T11:29:24.134Z,33.10
2018-10-09T11:30:24.116Z,33.70
2018-10-09T11:31:24.097Z,34.40
2018-10-09T11:32:24.114Z,33.30
2018-10-09T11:33:24.064Z,34.80
2018-10-09T11:34:24.055Z,36.00
2018-10-09T11:35:24.033Z,34.90
2018-10-09T11:36:24.009Z,34.90
2018-10-09T11:37:23.989Z,35.10
2018-10-09T11:38:23.968Z,34.60
2018-10-09T11:39:23.949Z,32.50
2018-10-09T11:40:23.933Z,32.70
2018-10-09T11:41:23.916Z,32.60
2018-10-09T11:42:23.893Z,32.80
2018-10-09T11:43:23.876Z,33.00
2018-10-09T11:44:23.857Z,33.70
2018-10-09T11:45:23.838Z,33.40
2018-10-09T11:46:23.818Z,32.50
2018-10-09T11:47:23.801Z,33.00
2018-10-09T11:48:23.790Z,30.60
2018-10-09T11:49:23.768Z,30.90
2018-10-09T11:50:23.745Z,29.60
2018-10-09T11:51:23.726Z,30.20
2018-10-09T11:52:23.709Z,29.00
2018-10-09T11:53:23.691Z,29.20
2018-10-09T11:54:23.671Z,30.10
2018-10-09T11:55:23.653Z,29.80
2018-10-09T11:56:23.636Z,29.70
2018-10-09T11:57:23.623Z,30.40
2018-10-09T11:58:23.606Z,29.10
2018-10-09T11:59:23.580Z,29.70
2018-10-09T12:00:23.565Z,29.40
2018-10-09T12:01:23.545Z,29.70
2018-10-09T12:02:23.527Z,30.80
2018-10-09T12:03:23.517Z,30.70
2018-10-09T12:04:23.497Z,30.90
2018-10-09T12:05:23.482Z,31.10
2018-10-09T12:06:23.452Z,30.40
2018-10-09T12:07:23.436Z,29.50
2018-10-09T12:08:23.416Z,29.50
2018-10-09T12:09:23.399Z,30.50
2018-10-09T12:10:23.379Z,29.90
2018-10-09T12:11:23.365Z,28.60
2018-10-09T12:12:23.353Z,30.60
2018-10-09T12:13:23.334Z,30.70
2018-10-09T12:14:23.307Z,31.30
2018-10-09T12:15:23.294Z,32.20
2018-10-09T12:16:23.311Z,32.40
2018-10-09T12:17:23.255Z,32.50
2018-10-09T12:18:23.264Z,30.80
2018-10-09T12:19:23.217Z,32.30
2018-10-09T12:20:23.204Z,32.40
2018-10-09T12:21:23.215Z,31.40
2018-10-09T12:22:23.162Z,29.40
2018-10-09T12:23:23.149Z,30.40
2018-10-09T12:24:23.128Z,29.20
2018-10-09T12:25:23.108Z,30.10
2018-10-09T12:26:23.090Z,31.40
2018-10-09T12:27:23.071Z,31.70
2018-10-09T12:28:23.057Z,31.50
2018-10-09T12:29:23.039Z,32.70
2018-10-09T12:30:23.021Z,32.00
2018-10-09T12:31:23.000Z,31.30
2018-10-09T12:32:22.982Z,30.30
2018-10-09T12:33:22.964Z,32.00
2018-10-09T12:34:22.948Z,33.10
2018-10-09T12:35:22.926Z,31.90
2018-10-09T12:36:22.912Z,31.20
2018-10-09T12:37:22.889Z,31.20
2018-10-09T12:38:22.895Z,30.40
2018-10-09T12:39:22.861Z,30.00
2018-10-09T12:40:22.840Z,30.50
2018-10-09T12:41:22.839Z,31.60
2018-10-09T12:42:22.801Z,31.20
2018-10-09T12:43:22.793Z,33.30
2018-10-09T12:44:22.871Z,34.00
2018-10-09T12:45:22.751Z,31.80
2018-10-09T12:46:22.728Z,31.10
2018-10-09T12:47:22.707Z,32.50
2018-10-09T12:48:22.701Z,31.40
2018-10-09T12:49:22.673Z,31.30
2018-10-09T12:50:22.654Z,32.00
2018-10-09T12:51:22.636Z,33.30
2018-10-09T12:52:22.619Z,33.40
2018-10-09T12:53:22.607Z,34.80